Time;durP1;ratioP1;P1;durP2;ratioP2;P2;SDS_P1;SDS_P2;PMS_P1;PMS_P2;Temp;Humidity;BMP_temperature;BMP_pressure;BME280_temperature;BME280_humidity;BME280_pressure;Samples;Min_cycle;Max_cycle;Signal;HPM_P1;HPM_P2
2023/01/03 00:01:27;;;;;;;13.63;4.72;;;;;;;;;;5054588;28;20041;-50
2023/01/03 00:03:54;;;;;;;18.63;4.28;;;;;;;;;;5053188;28;20113;-50
2023/01/03 00:06:41;;;;;;;12.55;3.65;;;3.00;99.90;;;;;;5054551;28;20048;-49
2023/01/03 00:09:09;;;;;;;11.40;3.63;;;2.90;99.90;;;;;;5054123;28;20488;-49
2023/01/03 00:14:25;;;;;;;11.27;3.40;;;3.20;99.90;;;;;;5053093;28;20049;-51
2023/01/03 00:16:53;;;;;;;7.43;3.63;;;3.00;99.90;;;;;;5053873;28;20052;-46
2023/01/03 00:19:20;;;;;;;10.07;3.90;;;3.20;99.90;;;;;;5054619;28;20500;-49
2023/01/03 00:21:46;;;;;;;8.00;3.38;;;;;;;;;;5054540;28;20072;-47
2023/01/03 00:24:13;;;;;;;10.40;3.85;;;;;;;;;;5055803;28;20037;-51
2023/01/03 00:26:39;;;;;;;11.55;3.42;;;;;;;;;;5055078;28;20072;-49
2023/01/03 00:29:06;;;;;;;12.73;3.63;;;3.30;99.90;;;;;;5054620;28;20269;-50
2023/01/03 00:31:32;;;;;;;8.85;3.70;;;;;;;;;;5054448;28;20040;-50
2023/01/03 00:33:59;;;;;;;15.07;4.57;;;;;;;;;;5053968;28;20053;-49
2023/01/03 00:36:25;;;;;;;10.80;4.13;;;;;;;;;;5055217;28;20485;-49
2023/01/03 00:38:51;;;;;;;11.90;4.57;;;;;;;;;;5053522;28;20040;-49
2023/01/03 00:41:18;;;;;;;10.57;4.20;;;3.40;99.90;;;;;;5052972;28;20052;-49
2023/01/03 00:43:45;;;;;;;12.52;3.33;;;3.30;99.90;;;;;;5052866;28;20855;-51
2023/01/03 00:46:13;;;;;;;7.47;3.20;;;3.40;99.90;;;;;;5052775;28;20048;-49
2023/01/03 00:48:40;;;;;;;8.25;3.30;;;;;;;;;;5053614;28;20106;-50
2023/01/03 00:51:20;;;;;;;9.82;3.05;;;3.60;99.90;;;;;;5052525;28;20308;-51
2023/01/03 00:53:48;;;;;;;8.88;3.13;;;3.40;99.90;;;;;;5053971;28;20048;-50
2023/01/03 00:56:17;;;;;;;10.48;2.97;;;1.90;99.90;;;;;;5052961;28;20037;-48
2023/01/03 00:58:43;;;;;;;9.88;2.92;;;;;;;;;;5052897;28;20049;-45
2023/01/03 01:01:15;;;;;;;10.77;3.08;;;3.70;99.90;;;;;;5052740;28;20048;-48
2023/01/03 01:03:46;;;;;;;14.00;3.65;;;3.60;99.90;;;;;;5052614;28;20126;-50
2023/01/03 01:06:23;;;;;;;15.33;3.37;;;3.50;99.90;;;;;;5052382;28;20289;-50
2023/01/03 01:08:51;;;;;;;12.10;2.90;;;3.80;99.90;;;;;;5052570;28;20301;-46
2023/01/03 01:11:17;;;;;;;10.38;3.10;;;3.70;99.90;;;;;;5053214;28;20119;-50
2023/01/03 01:13:44;;;;;;;11.45;3.08;;;3.70;99.90;;;;;;5052959;28;20464;-49
2023/01/03 01:16:13;;;;;;;9.60;2.42;;;3.70;99.90;;;;;;5051004;28;20151;-48
2023/01/03 01:18:40;;;;;;;10.15;2.53;;;3.90;99.90;;;;;;5052046;28;20049;-51
2023/01/03 01:21:07;;;;;;;8.30;3.00;;;3.70;99.90;;;;;;5052398;28;20044;-49
2023/01/03 01:23:37;;;;;;;12.98;3.75;;;3.90;99.90;;;;;;5052274;28;20044;-50
2023/01/03 01:26:04;;;;;;;12.55;2.97;;;3.80;99.90;;;;;;5052688;28;20072;-50
2023/01/03 01:28:31;;;;;;;10.35;2.80;;;;;;;;;;5054090;28;20040;-47
2023/01/03 01:30:58;;;;;;;8.95;2.80;;;4.00;99.90;;;;;;5053369;28;20132;-49
2023/01/03 01:33:24;;;;;;;9.43;3.22;;;;;;;;;;5053894;28;20037;-47
2023/01/03 01:35:50;;;;;;;9.05;3.20;;;3.90;99.90;;;;;;5053330;28;20045;-49
2023/01/03 01:38:16;;;;;;;12.35;2.70;;;;;;;;;;5054304;28;20044;-51
2023/01/03 01:40:42;;;;;;;7.35;3.30;;;;;;;;;;5054035;28;20178;-46
2023/01/03 01:46:27;;;;;;;8.93;3.03;;;3.90;99.90;;;;;;5056895;28;20056;-50
2023/01/03 01:48:57;;;;;;;11.93;3.08;;;3.80;99.90;;;;;;5056413;28;20683;-51
2023/01/03 01:51:28;;;;;;;14.68;4.22;;;4.00;99.90;;;;;;5058537;28;20040;-51
2023/01/03 01:53:55;;;;;;;6.47;2.92;;;3.90;99.90;;;;;;5057832;28;20394;-48
2023/01/03 01:56:26;;;;;;;12.98;3.40;;;4.00;99.90;;;;;;5056804;28;20044;-51
2023/01/03 01:58:54;;;;;;;11.80;3.30;;;;;;;;;;5054911;28;20118;-48
2023/01/03 02:01:21;;;;;;;11.05;2.80;;;3.90;99.90;;;;;;5055461;28;20098;-50
2023/01/03 02:03:54;;;;;;;9.43;3.03;;;3.90;99.90;;;;;;5056562;28;20111;-52
2023/01/03 02:06:21;;;;;;;11.15;3.33;;;4.00;99.90;;;;;;5055960;28;20032;-47
2023/01/03 02:08:48;;;;;;;10.25;3.22;;;;;;;;;;5054589;28;20048;-45
2023/01/03 02:11:14;;;;;;;9.10;3.45;;;;;;;;;;5056205;28;20122;-51
2023/01/03 02:14:06;;;;;;;9.48;3.67;;;4.10;99.90;;;;;;5055392;28;20052;-48
2023/01/03 02:16:32;;;;;;;11.73;3.25;;;;;;;;;;5055005;28;20148;-50
2023/01/03 02:19:33;;;;;;;14.15;3.65;;;4.10;99.90;;;;;;5055733;28;20110;-50
2023/01/03 02:22:24;;;;;;;9.50;2.95;;;3.90;99.90;;;;;;5055732;28;20047;-49
2023/01/03 02:25:29;;;;;;;9.15;2.80;;;3.90;99.90;;;;;;5055485;28;20048;-50
2023/01/03 02:28:10;;;;;;;8.93;2.83;;;4.10;99.90;;;;;;5054432;28;20041;-49
2023/01/03 02:30:48;;;;;;;9.15;3.03;;;4.00;99.90;;;;;;5055813;28;20053;-50
2023/01/03 02:33:14;;;;;;;11.70;2.88;;;;;;;;;;5055727;28;20048;-52
2023/01/03 02:36:03;;;;;;;9.10;2.95;;;3.90;99.90;;;;;;5054817;28;20048;-49
2023/01/03 02:38:29;;;;;;;7.68;2.70;;;;;;;;;;5055471;28;20043;-50
2023/01/03 02:41:09;;;;;;;7.68;3.10;;;3.80;99.90;;;;;;5054880;28;20040;-50
2023/01/03 02:43:45;;;;;;;11.27;2.60;;;3.60;99.90;;;;;;5055091;28;20068;-50
2023/01/03 02:46:20;;;;;;;11.13;2.50;;;3.70;99.90;;;;;;5055726;28;20521;-49
2023/01/03 02:49:19;;;;;;;11.23;2.70;;;3.50;99.90;;;;;;5056431;28;20033;-50
2023/01/03 02:51:49;;;;;;;9.23;2.35;;;3.40;99.90;;;;;;5088380;28;20098;-48
2023/01/03 02:54:22;;;;;;;9.40;2.65;;;3.40;99.90;;;;;;5055234;28;20032;-45
2023/01/03 02:56:54;;;;;;;10.15;2.65;;;3.20;99.90;;;;;;5056166;28;20044;-49
2023/01/03 02:59:43;;;;;;;9.75;2.60;;;3.30;99.90;;;;;;5057456;28;20393;-47
2023/01/03 03:02:12;;;;;;;11.55;2.72;;;3.00;99.90;;;;;;5056196;28;20044;-46
2023/01/03 03:04:39;;;;;;;6.90;2.08;;;3.00;99.90;;;;;;5056277;28;20405;-46
2023/01/03 03:07:08;;;;;;;9.52;3.00;;;3.00;99.90;;;;;;5056179;28;20048;-50
2023/01/03 03:13:11;;;;;;;10.73;2.63;;;;;;;;;;5056853;28;20032;-49
2023/01/03 03:15:13;;;;;;;10.00;3.30;;;2.80;99.90;;;;;;5056830;28;20040;-50
2023/01/03 03:17:41;;;;;;;8.85;3.22;;;2.70;99.90;;;;;;5056647;28;20143;-48
2023/01/03 03:25:58;;;;;;;9.02;3.17;;;2.70;99.90;;;;;;5055791;28;20053;-50
2023/01/03 03:28:36;;;;;;;8.40;2.95;;;2.60;99.90;;;;;;5055611;28;20044;-51
2023/01/03 03:31:16;;;;;;;9.63;2.85;;;2.60;99.90;;;;;;5055458;28;20071;-48
2023/01/03 03:33:56;;;;;;;14.48;3.08;;;2.50;99.90;;;;;;5055983;28;20045;-49
2023/01/03 03:36:44;;;;;;;10.07;2.67;;;2.60;99.90;;;;;;5055194;28;20044;-47
2023/01/03 03:45:12;;;;;;;18.60;4.05;;;2.40;99.90;;;;;;5053963;28;20582;-47
2023/01/03 03:47:42;;;;;;;9.15;2.78;;;2.30;99.90;;;;;;5053671;28;20047;-46
2023/01/03 03:50:18;;;;;;;6.55;2.78;;;2.40;99.90;;;;;;5053844;28;20044;-48
2023/01/03 03:52:48;;;;;;;5.93;2.55;;;2.20;99.90;;;;;;5054425;28;20044;-50
2023/01/03 03:55:17;;;;;;;7.30;2.85;;;2.40;99.90;;;;;;5054039;28;20236;-49
2023/01/03 03:57:51;;;;;;;9.65;3.03;;;2.30;99.90;;;;;;5054746;28;20044;-48
2023/01/03 04:00:23;;;;;;;8.00;2.90;;;2.00;99.90;;;;;;5053221;28;21013;-48
2023/01/03 04:02:49;;;;;;;9.00;2.75;;;2.00;99.90;;;;;;5054679;28;20498;-48
2023/01/03 04:05:19;;;;;;;16.73;4.60;;;1.90;99.90;;;;;;5053703;28;20165;-51
2023/01/03 04:07:45;;;;;;;7.07;2.60;;;;;;;;;;5054236;28;20073;-49
2023/01/03 04:10:12;;;;;;;13.20;3.15;;;1.70;99.90;;;;;;5054570;28;20070;-49
2023/01/03 04:12:38;;;;;;;8.52;2.45;;;;;;;;;;5053442;28;20044;-49
2023/01/03 04:15:05;;;;;;;11.77;2.80;;;1.50;99.90;;;;;;5052807;28;20041;-49
2023/01/03 04:17:32;;;;;;;8.82;2.83;;;;;;;;;;5053049;28;20078;-50
2023/01/03 04:19:58;;;;;;;9.07;2.65;;;;;;;;;;5054074;28;20258;-48
2023/01/03 04:22:24;;;;;;;8.73;2.88;;;;;;;;;;5054000;28;20136;-50
2023/01/03 04:24:50;;;;;;;11.00;3.63;;;;;;;;;;5054037;28;20085;-50
2023/01/03 04:27:16;;;;;;;8.23;3.08;;;;;;;;;;5053251;28;20033;-48
2023/01/03 04:29:42;;;;;;;10.32;3.25;;;;;;;;;;5052757;28;20067;-47
2023/01/03 04:32:09;;;;;;;7.03;3.63;;;;;;;;;;5054216;28;20044;-50
2023/01/03 04:34:35;;;;;;;7.13;3.50;;;;;;;;;;5053014;28;20044;-49
2023/01/03 04:37:01;;;;;;;9.55;3.33;;;;;;;;;;5052541;28;20143;-49
2023/01/03 04:39:27;;;;;;;11.75;3.70;;;;;;;;;;5053229;28;20041;-50
2023/01/03 04:41:53;;;;;;;10.23;3.70;;;;;;;;;;5054089;28;20036;-50
2023/01/03 04:44:19;;;;;;;11.70;4.40;;;;;;;;;;5053410;28;20041;-48
2023/01/03 04:46:45;;;;;;;13.75;4.68;;;;;;;;;;5053609;28;20558;-51
2023/01/03 04:49:11;;;;;;;12.52;4.65;;;;;;;;;;5053597;28;20037;-49
2023/01/03 04:51:38;;;;;;;13.40;5.30;;;;;;;;;;5054096;28;20516;-50
2023/01/03 04:54:05;;;;;;;15.80;6.43;;;2.10;99.90;;;;;;5087145;28;20056;-49
2023/01/03 04:56:33;;;;;;;16.88;6.28;;;2.20;99.90;;;;;;5053915;28;20135;-50
2023/01/03 04:59:00;;;;;;;15.35;6.70;;;;;;;;;;5053496;28;20163;-48
2023/01/03 05:01:26;;;;;;;13.38;6.32;;;;;;;;;;5054375;28;20044;-47
2023/01/03 05:03:56;;;;;;;12.23;6.70;;;2.30;99.90;;;;;;5054677;28;20536;-48
2023/01/03 05:06:22;;;;;;;13.63;7.40;;;;;;;;;;5053658;28;20047;-49
2023/01/03 05:08:49;;;;;;;21.42;8.18;;;;;;;;;;5053932;28;20135;-49
2023/01/03 05:11:16;;;;;;;15.48;8.00;;;2.20;99.90;;;;;;5054083;28;20040;-51
2023/01/03 05:13:42;;;;;;;19.83;8.30;;;;;;;;;;5052629;28;20084;-50
2023/01/03 05:16:12;;;;;;;20.35;7.95;;;2.30;99.90;;;;;;5051313;28;20152;-50
2023/01/03 05:18:39;;;;;;;20.08;9.00;;;;;;;;;;5052330;28;20048;-50
2023/01/03 05:26:46;;;;;;;18.40;8.70;;;;;;;;;;5052899;28;20041;-49
2023/01/03 05:29:15;;;;;;;19.27;8.80;;;1.90;99.90;;;;;;5052096;28;20041;-50
2023/01/03 05:31:41;;;;;;;18.33;8.65;;;;;;;;;;5053034;28;20482;-49
2023/01/03 05:34:07;;;;;;;26.52;9.65;;;;;;;;;;5053700;28;20485;-49
2023/01/03 05:36:33;;;;;;;22.45;9.98;;;;;;;;;;5052621;28;20123;-49
2023/01/03 05:39:00;;;;;;;22.27;10.07;;;2.00;99.90;;;;;;5052982;28;20412;-50
2023/01/03 05:44:11;;;;;;;23.05;10.07;;;;;;;;;;5052340;28;20047;-51
2023/01/03 05:46:37;;;;;;;22.55;10.82;;;;;;;;;;5051308;28;20509;-49
2023/01/03 05:49:03;;;;;;;26.35;11.05;;;;;;;;;;5052455;28;20044;-50
2023/01/03 05:51:29;;;;;;;22.35;11.48;;;;;;;;;;5052195;28;20102;-51
2023/01/03 05:53:55;;;;;;;21.10;11.15;;;;;;;;;;5051973;28;20492;-46
2023/01/03 05:56:21;;;;;;;23.42;12.40;;;;;;;;;;5052514;28;20510;-52
2023/01/03 05:58:48;;;;;;;23.67;12.25;;;;;;;;;;5053421;28;20123;-51
2023/01/03 06:01:14;;;;;;;27.17;11.88;;;;;;;;;;5052369;28;20501;-49
2023/01/03 06:03:43;;;;;;;21.45;12.07;;;2.10;99.90;;;;;;5054195;28;20040;-47
2023/01/03 06:06:09;;;;;;;23.48;13.00;;;;;;;;;;5053279;28;20041;-47
2023/01/03 06:08:35;;;;;;;25.05;12.85;;;;;;;;;;5053588;28;20041;-52
2023/01/03 06:11:11;;;;;;;24.15;13.35;;;2.00;99.90;;;;;;5053579;28;20401;-50
2023/01/03 06:13:37;;;;;;;21.52;13.25;;;;;;;;;;5053508;28;20045;-48
2023/01/03 06:18:49;;;;;;;25.63;14.20;;;;;;;;;;5053373;28;20513;-50
2023/01/03 06:21:16;;;;;;;24.63;13.65;;;;;;;;;;5052959;28;20044;-50
2023/01/03 06:23:44;;;;;;;28.50;13.63;;;;;;;;;;5053164;28;20036;-49
2023/01/03 06:26:10;;;;;;;28.17;14.13;;;;;;;;;;5052868;28;20124;-48
2023/01/03 06:28:36;;;;;;;26.65;14.43;;;;;;;;;;5054264;28;20059;-50
2023/01/03 06:31:04;;;;;;;32.17;15.57;;;1.60;99.90;;;;;;5055249;28;20065;-52
2023/01/03 06:33:30;;;;;;;31.08;15.65;;;;;;;;;;5057120;28;20688;-49
2023/01/03 06:35:57;;;;;;;33.60;15.80;;;;;;;;;;5057332;28;20048;-48
2023/01/03 06:38:23;;;;;;;26.35;15.93;;;;;;;;;;5056871;28;20141;-50
2023/01/03 06:40:49;;;;;;;42.83;17.50;;;1.50;99.90;;;;;;5055550;28;20119;-50
2023/01/03 06:43:15;;;;;;;34.35;16.92;;;;;;;;;;5054893;28;20048;-50
2023/01/03 06:54:03;;;;;;;32.47;17.00;;;;;;;;;;5055496;28;20049;-49
2023/01/03 06:56:29;;;;;;;33.20;17.08;;;;;;;;;;5054630;28;20536;-49
2023/01/03 06:58:55;;;;;;;36.13;18.10;;;;;;;;;;5053906;28;20033;-50
2023/01/03 07:01:21;;;;;;;38.97;18.65;;;;;;;;;;5055164;28;20040;-49
2023/01/03 07:03:47;;;;;;;34.17;17.92;;;;;;;;;;5055468;28;20198;-47
2023/01/03 07:06:14;;;;;;;40.88;19.25;;;;;;;;;;5054722;28;20043;-49
2023/01/03 07:08:40;;;;;;;39.92;18.92;;;;;;;;;;5054879;28;20547;-48
2023/01/03 07:11:06;;;;;;;36.85;18.65;;;;;;;;;;5054233;28;20045;-49
2023/01/03 07:16:18;;;;;;;39.47;19.08;;;1.10;99.90;;;;;;5054210;28;20060;-50
2023/01/03 07:18:44;;;;;;;37.72;20.10;;;;;;;;;;5054452;28;20052;-49
2023/01/03 07:21:10;;;;;;;37.40;20.33;;;;;;;;;;5053967;28;20593;-51
2023/01/03 07:23:37;;;;;;;43.85;21.60;;;1.00;99.90;;;;;;5054103;28;20044;-50
2023/01/03 07:26:03;;;;;;;42.28;22.45;;;;;;;;;;5055558;28;20123;-47
2023/01/03 07:28:29;;;;;;;38.83;20.95;;;;;;;;;;5055117;28;20936;-48
2023/01/03 07:31:00;;;;;;;45.63;21.17;;;1.10;99.90;;;;;;5052125;28;20491;-51
2023/01/03 07:33:26;;;;;;;39.30;20.85;;;;;;;;;;5055346;28;20102;-47
2023/01/03 07:35:52;;;;;;;40.30;21.58;;;;;;;;;;5055370;28;20159;-50
2023/01/03 07:38:19;;;;;;;34.60;19.27;;;;;;;;;;5055376;28;20623;-51
2023/01/03 07:40:45;;;;;;;39.80;21.08;;;;;;;;;;5055770;28;20045;-51
2023/01/03 07:45:55;;;;;;;41.60;22.60;;;;;;;;;;5054507;28;20068;-50
2023/01/03 07:48:21;;;;;;;40.22;21.58;;;;;;;;;;5054309;28;21086;-50
2023/01/03 07:50:47;;;;;;;45.67;21.02;;;;;;;;;;5054313;28;20044;-53
2023/01/03 07:53:15;;;;;;;38.70;20.92;;;;;;;;;;5055576;28;20048;-51
2023/01/03 07:55:43;;;;;;;42.45;21.60;;;1.10;99.90;;;;;;5054783;28;20044;-49
2023/01/03 07:58:10;;;;;;;45.45;21.10;;;;;;;;;;5054152;28;20525;-53
2023/01/03 08:00:36;;;;;;;47.15;20.83;;;;;;;;;;5054321;28;20047;-50
2023/01/03 08:03:02;;;;;;;35.60;18.67;;;;;;;;;;5055903;28;20076;-49
2023/01/03 08:05:28;;;;;;;34.45;18.58;;;;;;;;;;5054994;28;20040;-49
2023/01/03 08:07:54;;;;;;;36.00;18.70;;;;;;;;;;5054348;28;20037;-51
2023/01/03 08:13:17;;;;;;;35.25;18.73;;;;;;;;;;5053623;28;20049;-51
2023/01/03 08:15:54;;;;;;;28.58;17.92;;;1.20;99.90;;;;;;5053210;28;20045;-49
2023/01/03 08:18:23;;;;;;;36.00;18.30;;;1.20;99.90;;;;;;5053656;28;20148;-52
2023/01/03 08:20:50;;;;;;;35.53;18.13;;;1.30;99.90;;;;;;5053946;28;20040;-53
2023/01/03 08:23:16;;;;;;;29.65;16.85;;;;;;;;;;5052918;28;20405;-49
2023/01/03 08:25:42;;;;;;;33.40;17.70;;;;;;;;;;5052609;28;20032;-53
2023/01/03 08:28:09;;;;;;;30.60;18.08;;;1.10;99.90;;;;;;5052190;28;20111;-53
2023/01/03 08:30:43;;;;;;;31.30;17.42;;;1.30;99.90;;;;;;5051931;28;20036;-53
2023/01/03 08:33:12;;;;;;;29.33;18.15;;;1.50;99.90;;;;;;5053232;28;20036;-53
2023/01/03 08:35:40;;;;;;;34.00;18.85;;;1.80;99.90;;;;;;5052558;28;20043;-50
2023/01/03 08:38:10;;;;;;;34.63;19.13;;;2.20;99.90;;;;;;5052163;28;20101;-53
2023/01/03 08:40:39;;;;;;;32.40;17.90;;;2.80;99.90;;;;;;5051165;28;20417;-53
2023/01/03 08:43:05;;;;;;;29.77;18.33;;;;;;;;;;5052163;28;20105;-55
2023/01/03 08:45:31;;;;;;;30.88;18.75;;;;;;;;;;5052736;28;20116;-50
2023/01/03 08:48:01;;;;;;;28.35;18.77;;;3.00;99.90;;;;;;5052413;28;20048;-52
2023/01/03 08:50:29;;;;;;;27.35;18.48;;;;;;;;;;5052310;28;20291;-53
2023/01/03 08:52:55;;;;;;;27.50;17.98;;;;;;;;;;5051333;28;20078;-51
2023/01/03 08:55:22;;;;;;;31.02;17.77;;;;;;;;;;5051577;28;20041;-52
2023/01/03 08:57:48;;;;;;;28.48;18.10;;;;;;;;;;5051672;28;20127;-51
2023/01/03 09:00:14;;;;;;;28.95;18.67;;;;;;;;;;5053800;28;20048;-52
2023/01/03 09:02:40;;;;;;;28.38;17.30;;;;;;;;;;5053825;28;20050;-50
2023/01/03 09:05:07;;;;;;;53.75;17.90;;;1.70;99.90;;;;;;5053534;28;20446;-53
2023/01/03 09:07:33;;;;;;;66.75;16.42;;;;;;;;;;5053269;28;20052;-50
2023/01/03 09:09:59;;;;;;;150.85;21.67;;;;;;;;;;5053375;28;20416;-52
2023/01/03 09:12:26;;;;;;;71.68;15.95;;;1.50;99.90;;;;;;5054137;28;20060;-50
2023/01/03 09:14:52;;;;;;;66.78;17.88;;;;;;;;;;5053775;28;20139;-51
2023/01/03 09:17:18;;;;;;;127.63;21.38;;;;;;;;;;5051308;28;20059;-48
2023/01/03 09:19:44;;;;;;;101.63;22.25;;;;;;;;;;5053152;28;20488;-48
2023/01/03 09:22:10;;;;;;;74.05;21.00;;;;;;;;;;5053306;28;20044;-51
2023/01/03 09:24:37;;;;;;;100.95;22.60;;;;;;;;;;5053044;28;20135;-51
2023/01/03 09:27:03;;;;;;;77.57;21.13;;;;;;;;;;5052787;28;20044;-52
2023/01/03 09:29:29;;;;;;;106.90;21.33;;;;;;;;;;5051727;28;20040;-51
2023/01/03 09:31:55;;;;;;;145.65;23.35;;;;;;;;;;5052589;28;20037;-50
2023/01/03 09:34:21;;;;;;;129.63;23.02;;;;;;;;;;5054235;28;20700;-52
2023/01/03 09:36:47;;;;;;;173.55;25.55;;;;;;;;;;5052770;28;20044;-52
2023/01/03 09:39:13;;;;;;;150.95;23.73;;;;;;;;;;5051946;28;20036;-52
2023/01/03 09:41:40;;;;;;;116.95;21.95;;;;;;;;;;5051841;28;20040;-50
2023/01/03 09:44:07;;;;;;;116.32;22.17;;;1.60;99.90;;;;;;5051468;28;20350;-53
2023/01/03 09:46:34;;;;;;;195.57;26.90;;;1.70;99.90;;;;;;5052407;28;20041;-49
2023/01/03 09:49:02;;;;;;;131.15;23.23;;;1.90;99.90;;;;;;5052543;28;20084;-50
2023/01/03 10:06:13;;;;;;;157.93;25.00;;;2.10;99.90;;;;;;5056167;28;20083;-51
2023/01/03 10:08:45;;;;;;;293.27;29.58;;;2.00;99.90;;;;;;5055416;28;20050;-54
2023/01/03 10:11:25;;;;;;;269.73;32.03;;;2.20;99.90;;;;;;5055171;28;20062;-50
2023/01/03 10:14:21;;;;;;;274.90;31.38;;;2.60;99.90;;;;;;5055072;28;20055;-50
2023/01/03 10:17:17;;;;;;;169.18;27.48;;;4.30;99.90;;;;;;5055269;28;20045;-51
2023/01/03 10:19:43;;;;;;;309.75;34.97;;;;;;;;;;5056988;28;20725;-50
2023/01/03 10:22:25;;;;;;;247.90;32.90;;;2.70;99.90;;;;;;5055403;28;20044;-51
2023/01/03 10:24:55;;;;;;;;;;;3.80;99.90;;;;;;5054646;28;20136;-51
2023/01/03 10:27:25;;;;;;;250.43;33.42;;;2.90;99.90;;;;;;5055196;28;19928;-53
2023/01/03 10:29:54;;;;;;;157.32;31.15;;;2.80;99.90;;;;;;5056781;28;20106;-52
2023/01/03 10:32:46;;;;;;;144.75;31.25;;;2.90;99.90;;;;;;5055370;28;20041;-53
2023/01/03 10:35:31;;;;;;;144.85;30.60;;;3.00;99.90;;;;;;5057026;28;20048;-52
2023/01/03 10:37:58;;;;;;;142.20;32.10;;;;;;;;;;5056561;28;20336;-52
2023/01/03 10:40:43;;;;;;;104.25;30.50;;;3.00;99.90;;;;;;5056805;28;20037;-53
2023/01/03 10:43:36;;;;;;;110.97;31.67;;;3.00;99.90;;;;;;5056731;28;20505;-56
2023/01/03 10:46:05;;;;;;;118.78;32.10;;;3.20;99.90;;;;;;5056405;28;20060;-51
2023/01/03 10:48:39;;;;;;;96.97;31.33;;;3.20;99.90;;;;;;5057059;28;20033;-52
2023/01/03 10:51:32;;;;;;;100.25;33.92;;;3.40;99.90;;;;;;5056059;28;20044;-53
2023/01/03 10:54:00;;;;;;;96.97;32.08;;;3.30;99.90;;;;;;5055847;28;20076;-54
2023/01/03 10:56:29;;;;;;;102.22;32.72;;;3.50;99.90;;;;;;5053065;28;20045;-51
2023/01/03 10:59:10;;;;;;;90.90;32.60;;;3.40;99.90;;;;;;5055281;28;20040;-54
2023/01/03 11:01:36;;;;;;;111.72;35.35;;;;;;;;;;5054203;28;20032;-53
2023/01/03 11:04:18;;;;;;;139.23;36.45;;;2.00;99.90;;;;;;5055404;28;20425;-53
2023/01/03 11:07:06;;;;;;;89.80;36.00;;;3.60;99.90;;;;;;5054554;28;20131;-50
2023/01/03 11:09:49;;;;;;;96.97;36.53;;;3.70;99.90;;;;;;5053002;28;20795;-51
2023/01/03 11:12:37;;;;;;;102.70;37.58;;;3.90;99.90;;;;;;5054760;28;20051;-52
2023/01/03 11:15:18;;;;;;;88.32;36.08;;;4.00;99.90;;;;;;5054034;28;20498;-51
2023/01/03 11:17:57;;;;;;;124.50;38.15;;;4.10;99.90;;;;;;5054132;28;20040;-53
2023/01/03 11:20:47;;;;;;;90.10;36.25;;;4.00;99.90;;;;;;5054322;28;20732;-52
2023/01/03 11:23:30;;;;;;;87.43;37.50;;;4.30;99.90;;;;;;5054964;28;20048;-51
2023/01/03 11:26:18;;;;;;;86.47;35.53;;;4.10;99.90;;;;;;5054207;28;20054;-53
2023/01/03 11:29:11;;;;;;;86.13;36.80;;;4.20;99.90;;;;;;5054952;28;20071;-52
2023/01/03 11:32:07;;;;;;;89.03;36.88;;;4.30;99.90;;;;;;5054043;28;20068;-53
2023/01/03 11:35:06;;;;;;;88.75;37.38;;;4.30;99.90;;;;;;5055306;28;20032;-53
2023/01/03 11:37:54;;;;;;;94.28;39.50;;;2.60;99.90;;;;;;5053778;28;20167;-53
2023/01/03 11:40:41;;;;;;;95.43;38.78;;;4.50;99.90;;;;;;5054403;28;20115;-53
2023/01/03 11:43:34;;;;;;;89.20;38.63;;;4.60;99.90;;;;;;5054079;28;20036;-55
2023/01/03 11:46:17;;;;;;;93.72;38.30;;;4.70;99.90;;;;;;5053676;28;20049;-51
2023/01/03 11:48:49;;;;;;;83.40;37.13;;;4.70;99.90;;;;;;5054809;28;20036;-54
2023/01/03 11:51:28;;;;;;;89.10;38.90;;;4.70;99.90;;;;;;5054736;28;20700;-49
2023/01/03 11:54:17;;;;;;;92.80;38.47;;;4.70;99.90;;;;;;5055682;28;20051;-51
2023/01/03 11:56:44;;;;;;;88.05;38.63;;;4.90;99.90;;;;;;5055089;28;20049;-54
2023/01/03 11:59:11;;;;;;;83.00;36.97;;;;;;;;;;5055371;28;20060;-50
2023/01/03 12:02:01;;;;;;;86.93;37.97;;;4.80;99.90;;;;;;5054853;28;20511;-51
2023/01/03 12:04:37;;;;;;;84.00;38.38;;;5.00;99.90;;;;;;5054897;28;20036;-54
2023/01/03 12:07:40;;;;;;;85.70;37.95;;;5.00;99.90;;;;;;5038213;28;20055;-51
2023/01/03 12:10:25;;;;;;;87.80;38.53;;;5.10;99.90;;;;;;5041964;28;20061;-52
2023/01/03 12:13:03;;;;;;;83.15;39.45;;;5.20;99.90;;;;;;5054114;28;20117;-50
2023/01/03 12:15:46;;;;;;;86.18;37.88;;;5.30;99.90;;;;;;5053322;28;20548;-53
2023/01/03 12:18:31;;;;;;;93.00;39.42;;;5.30;99.90;;;;;;5052416;28;20055;-53
2023/01/03 12:21:03;;;;;;;84.43;36.70;;;5.20;99.90;;;;;;5052718;28;20055;-51
2023/01/03 12:24:02;;;;;;;81.88;37.88;;;5.40;99.90;;;;;;5052394;28;20068;-53
2023/01/03 12:26:30;;;;;;;88.78;38.50;;;5.40;99.90;;;;;;5052009;28;20078;-50
2023/01/03 12:29:28;;;;;;;85.75;39.08;;;5.30;99.90;;;;;;5051545;28;20051;-46
2023/01/03 12:32:08;;;;;;;76.03;36.00;;;5.30;99.90;;;;;;5041874;28;20045;-51
2023/01/03 12:34:45;;;;;;;81.00;36.33;;;5.50;99.90;;;;;;5052612;28;20179;-49
2023/01/03 12:37:16;;;;;;;86.07;38.42;;;5.60;99.90;;;;;;5053233;28;20075;-47
2023/01/03 12:40:01;;;;;;;80.97;36.75;;;5.50;99.90;;;;;;5053356;28;20120;-48
2023/01/03 12:43:07;;;;;;;86.72;36.38;;;5.60;99.90;;;;;;5053477;28;20036;-51
2023/01/03 12:45:58;;;;;;;70.78;34.95;;;5.40;99.90;;;;;;5051971;28;20131;-49
2023/01/03 12:48:57;;;;;;;71.22;35.63;;;5.70;99.90;;;;;;5053217;28;20147;-50
2023/01/03 12:51:23;;;;;;;68.78;31.33;;;5.70;99.90;;;;;;5044010;28;20644;-51
2023/01/03 12:54:13;;;;;;;69.05;32.17;;;5.80;99.90;;;;;;5052827;28;20051;-53
2023/01/03 12:56:51;;;;;;;55.45;27.45;;;5.80;99.90;;;;;;5052293;28;20059;-53
2023/01/03 12:59:37;;;;;;;63.78;30.20;;;5.70;99.90;;;;;;5050827;28;20139;-52
2023/01/03 13:02:22;;;;;;;62.22;29.27;;;5.80;99.90;;;;;;5052061;28;20970;-52
2023/01/03 13:04:52;;;;;;;57.83;27.50;;;6.00;99.90;;;;;;5053246;28;20072;-51
2023/01/03 13:07:28;;;;;;;61.80;28.95;;;6.00;99.90;;;;;;5051768;28;20569;-52
2023/01/03 13:10:12;;;;;;;52.22;28.73;;;6.00;99.90;;;;;;5053179;28;20283;-53
2023/01/03 13:12:42;;;;;;;47.70;23.80;;;6.10;99.90;;;;;;5053096;28;20044;-53
2023/01/03 13:15:28;;;;;;;49.65;27.05;;;6.00;99.90;;;;;;5053061;28;22051;-54
2023/01/03 13:17:54;;;;;;;46.40;24.50;;;6.00;99.90;;;;;;5053667;28;20127;-54
2023/01/03 13:20:47;;;;;;;45.22;22.58;;;6.20;99.90;;;;;;5053432;28;20580;-51
2023/01/03 13:23:35;;;;;;;45.20;23.75;;;6.00;99.90;;;;;;5052937;28;20056;-53
2023/01/03 13:26:09;;;;;;;41.00;23.08;;;6.10;99.90;;;;;;5053164;28;20627;-52
2023/01/03 13:28:36;;;;;;;42.22;22.27;;;6.30;99.90;;;;;;5053962;28;20036;-51
2023/01/03 13:31:13;;;;;;;43.78;22.00;;;6.20;99.90;;;;;;5052473;28;20048;-53
2023/01/03 13:33:52;;;;;;;41.95;21.52;;;6.20;99.90;;;;;;5054506;28;20048;-53
2023/01/03 13:36:18;;;;;;;42.80;22.83;;;6.30;99.90;;;;;;5052499;28;20036;-53
2023/01/03 13:38:44;;;;;;;42.35;23.52;;;6.30;99.90;;;;;;5052565;28;20033;-51
2023/01/03 13:41:34;;;;;;;42.10;21.90;;;6.30;99.90;;;;;;5052324;28;20056;-51
2023/01/03 13:44:20;;;;;;;42.38;21.73;;;6.20;99.90;;;;;;5052308;28;20366;-52
2023/01/03 13:46:47;;;;;;;44.20;22.63;;;6.30;99.90;;;;;;5052661;28;20040;-50
2023/01/03 13:49:22;;;;;;;42.00;21.42;;;6.30;99.90;;;;;;5050264;28;20052;-54
2023/01/03 13:51:56;;;;;;;50.55;21.33;;;6.30;99.90;;;;;;5052045;28;20612;-50
2023/01/03 13:54:24;;;;;;;40.40;20.50;;;6.40;99.90;;;;;;5051319;28;20045;-49
2023/01/03 13:56:51;;;;;;;40.60;21.98;;;6.30;99.90;;;;;;5051974;28;20587;-52
2023/01/03 13:59:43;;;;;;;44.47;22.55;;;6.40;99.90;;;;;;5052434;28;20333;-49
2023/01/03 14:02:09;;;;;;;41.22;21.48;;;6.30;99.90;;;;;;5052064;28;20052;-53
2023/01/03 14:04:53;;;;;;;47.58;21.13;;;6.40;99.90;;;;;;5051804;28;20048;-53
2023/01/03 14:08:09;;;;;;;39.20;20.35;;;6.40;99.90;;;;;;5050847;28;20401;-49
2023/01/03 14:10:52;;;;;;;36.10;18.30;;;6.40;99.90;;;;;;5027039;28;20048;-49
2023/01/03 14:13:38;;;;;;;40.10;20.48;;;6.50;99.90;;;;;;5050815;28;20056;-50
2023/01/03 14:16:10;;;;;;;41.30;20.08;;;6.50;99.90;;;;;;5047395;28;20590;-50
2023/01/03 14:18:38;;;;;;;45.63;22.35;;;6.50;99.90;;;;;;5051685;28;20259;-49
2023/01/03 14:21:06;;;;;;;37.67;20.35;;;6.50;99.90;;;;;;5052140;28;20040;-50
2023/01/03 14:23:34;;;;;;;39.00;20.50;;;6.60;99.90;;;;;;5051989;28;20048;-52
2023/01/03 14:26:16;;;;;;;41.35;21.20;;;6.60;99.90;;;;;;5051057;28;20051;-50
2023/01/03 14:28:47;;;;;;;36.90;20.55;;;6.60;99.90;;;;;;5051259;28;20071;-50
2023/01/03 14:31:26;;;;;;;45.80;23.60;;;6.40;99.90;;;;;;5051346;28;20447;-49
2023/01/03 14:33:56;;;;;;;50.58;22.30;;;6.60;99.90;;;;;;5053561;28;20048;-52
2023/01/03 14:36:22;;;;;;;39.95;22.05;;;6.60;99.90;;;;;;5052157;28;20090;-52
2023/01/03 14:38:59;;;;;;;38.13;21.65;;;6.60;99.90;;;;;;5051164;28;20176;-50
2023/01/03 14:41:54;;;;;;;41.38;22.52;;;6.70;99.90;;;;;;5053217;28;21270;-50
2023/01/03 14:44:20;;;;;;;44.33;22.52;;;6.60;99.90;;;;;;5050397;28;20053;-48
2023/01/03 14:46:56;;;;;;;48.95;23.65;;;6.70;99.90;;;;;;5052527;28;20082;-51
2023/01/03 14:49:40;;;;;;;40.85;21.50;;;6.70;99.90;;;;;;5051848;28;20040;-49